sensor_id;sensor_type;location;lat;lon;timestamp;pressure;altitude;pressure_sealevel;temperature;humidity
36964;BME280;22878;48.616;35.326;2023-01-29T00:03:40;100892.16;;;-0.99;100.00
36964;BME280;22878;48.616;35.326;2023-01-29T00:09:56;100885.15;;;-0.95;100.00
36964;BME280;22878;48.616;35.326;2023-01-29T00:12:22;100890.06;;;-0.96;100.00
36964;BME280;22878;48.616;35.326;2023-01-29T00:14:47;100888.07;;;-0.95;100.00
36964;BME280;22878;48.616;35.326;2023-01-29T00:17:13;100888.88;;;-0.96;100.00
36964;BME280;22878;48.616;35.326;2023-01-29T00:19:38;100892.10;;;-1.00;100.00
36964;BME280;22878;48.616;35.326;2023-01-29T00:22:04;100889.87;;;-1.02;100.00
36964;BME280;22878;48.616;35.326;2023-01-29T00:24:29;100890.33;;;-1.03;100.00
36964;BME280;22878;48.616;35.326;2023-01-29T00:26:55;100889.12;;;-1.03;100.00
36964;BME280;22878;48.616;35.326;2023-01-29T00:29:20;100891.41;;;-1.00;100.00
36964;BME280;22878;48.616;35.326;2023-01-29T00:31:46;100894.13;;;-1.01;100.00
36964;BME280;22878;48.616;35.326;2023-01-29T00:34:12;100897.12;;;-1.02;100.00
36964;BME280;22878;48.616;35.326;2023-01-29T00:36:37;100898.27;;;-1.03;100.00
36964;BME280;22878;48.616;35.326;2023-01-29T00:39:03;100895.99;;;-1.03;100.00
36964;BME280;22878;48.616;35.326;2023-01-29T00:41:36;100894.77;;;-1.01;100.00
36964;BME280;22878;48.616;35.326;2023-01-29T00:44:21;100896.73;;;-1.03;100.00
36964;BME280;22878;48.616;35.326;2023-01-29T00:47:06;100900.80;;;-1.05;100.00
36964;BME280;22878;48.616;35.326;2023-01-29T00:49:50;100904.23;;;-1.04;100.00
36964;BME280;22878;48.616;35.326;2023-01-29T00:52:16;100902.10;;;-1.05;100.00
36964;BME280;22878;48.616;35.326;2023-01-29T00:54:52;100905.36;;;-1.05;100.00
36964;BME280;22878;48.616;35.326;2023-01-29T00:57:18;100901.86;;;-1.05;100.00
36964;BME280;22878;48.616;35.326;2023-01-29T00:59:43;100907.25;;;-1.04;100.00
36964;BME280;22878;48.616;35.326;2023-01-29T01:02:09;100903.45;;;-1.05;100.00
36964;BME280;22878;48.616;35.326;2023-01-29T01:04:54;100905.00;;;-1.05;100.00
36964;BME280;22878;48.616;35.326;2023-01-29T01:07:19;100904.00;;;-1.08;100.00
36964;BME280;22878;48.616;35.326;2023-01-29T01:09:45;100896.20;;;-1.09;100.00
36964;BME280;22878;48.616;35.326;2023-01-29T01:12:29;100893.39;;;-1.08;100.00
36964;BME280;22878;48.616;35.326;2023-01-29T01:14:55;100895.55;;;-1.07;100.00
36964;BME280;22878;48.616;35.326;2023-01-29T01:17:21;100888.58;;;-1.09;100.00
36964;BME280;22878;48.616;35.326;2023-01-29T01:19:46;100891.17;;;-1.13;100.00
36964;BME280;22878;48.616;35.326;2023-01-29T01:22:12;100895.38;;;-1.14;100.00
36964;BME280;22878;48.616;35.326;2023-01-29T01:24:38;100900.09;;;-1.16;100.00
36964;BME280;22878;48.616;35.326;2023-01-29T01:27:03;100900.36;;;-1.18;100.00
36964;BME280;22878;48.616;35.326;2023-01-29T01:29:29;100903.20;;;-1.17;100.00
36964;BME280;22878;48.616;35.326;2023-01-29T01:31:54;100903.23;;;-1.17;100.00
36964;BME280;22878;48.616;35.326;2023-01-29T01:37:50;100896.52;;;-1.15;100.00
36964;BME280;22878;48.616;35.326;2023-01-29T01:43:52;100895.10;;;-1.16;100.00
36964;BME280;22878;48.616;35.326;2023-01-29T01:46:18;100895.79;;;-1.16;100.00
36964;BME280;22878;48.616;35.326;2023-01-29T01:52:16;100897.86;;;-1.15;100.00
36964;BME280;22878;48.616;35.326;2023-01-29T01:54:43;100894.72;;;-1.19;100.00
36964;BME280;22878;48.616;35.326;2023-01-29T01:57:13;100894.86;;;-1.21;100.00
36964;BME280;22878;48.616;35.326;2023-01-29T01:59:47;100896.66;;;-1.23;100.00
36964;BME280;22878;48.616;35.326;2023-01-29T02:02:14;100897.17;;;-1.25;100.00
36964;BME280;22878;48.616;35.326;2023-01-29T02:04:58;100898.56;;;-1.25;100.00
36964;BME280;22878;48.616;35.326;2023-01-29T02:07:45;100895.74;;;-1.25;100.00
36964;BME280;22878;48.616;35.326;2023-01-29T02:10:35;100895.14;;;-1.23;100.00
36964;BME280;22878;48.616;35.326;2023-01-29T02:13:04;100888.70;;;-1.24;100.00
36964;BME280;22878;48.616;35.326;2023-01-29T02:15:30;100887.23;;;-1.22;100.00
36964;BME280;22878;48.616;35.326;2023-01-29T02:17:56;100888.32;;;-1.22;100.00
36964;BME280;22878;48.616;35.326;2023-01-29T02:20:24;100885.39;;;-1.24;100.00
36964;BME280;22878;48.616;35.326;2023-01-29T02:41:57;100883.78;;;-1.30;100.00
36964;BME280;22878;48.616;35.326;2023-01-29T02:44:40;100882.39;;;-1.28;100.00
36964;BME280;22878;48.616;35.326;2023-01-29T02:47:18;100876.43;;;-1.28;100.00
36964;BME280;22878;48.616;35.326;2023-01-29T02:55:21;100882.52;;;-1.28;100.00
36964;BME280;22878;48.616;35.326;2023-01-29T02:57:51;100879.72;;;-1.30;100.00
36964;BME280;22878;48.616;35.326;2023-01-29T03:00:23;100878.98;;;-1.32;100.00
36964;BME280;22878;48.616;35.326;2023-01-29T03:03:10;100876.61;;;-1.31;100.00
36964;BME280;22878;48.616;35.326;2023-01-29T03:08:06;100875.39;;;-1.32;100.00
36964;BME280;22878;48.616;35.326;2023-01-29T03:10:36;100874.35;;;-1.34;100.00
36964;BME280;22878;48.616;35.326;2023-01-29T03:13:37;100872.74;;;-1.32;100.00
36964;BME280;22878;48.616;35.326;2023-01-29T03:16:16;100877.44;;;-1.30;100.00
36964;BME280;22878;48.616;35.326;2023-01-29T03:18:48;100881.42;;;-1.28;100.00
36964;BME280;22878;48.616;35.326;2023-01-29T03:21:28;100883.08;;;-1.27;100.00
36964;BME280;22878;48.616;35.326;2023-01-29T03:24:15;100883.29;;;-1.24;100.00
36964;BME280;22878;48.616;35.326;2023-01-29T03:27:04;100880.78;;;-1.27;100.00
36964;BME280;22878;48.616;35.326;2023-01-29T03:29:52;100880.35;;;-1.26;100.00
36964;BME280;22878;48.616;35.326;2023-01-29T03:32:37;100880.35;;;-1.26;100.00
36964;BME280;22878;48.616;35.326;2023-01-29T03:35:04;100883.10;;;-1.26;100.00
36964;BME280;22878;48.616;35.326;2023-01-29T03:40:04;100880.48;;;-1.22;100.00
36964;BME280;22878;48.616;35.326;2023-01-29T03:48:12;100881.52;;;-1.20;100.00
36964;BME280;22878;48.616;35.326;2023-01-29T03:51:24;100881.36;;;-1.18;100.00
36964;BME280;22878;48.616;35.326;2023-01-29T03:53:50;100875.96;;;-1.17;100.00
36964;BME280;22878;48.616;35.326;2023-01-29T03:56:38;100879.01;;;-1.18;100.00
36964;BME280;22878;48.616;35.326;2023-01-29T03:59:32;100876.04;;;-1.15;100.00
36964;BME280;22878;48.616;35.326;2023-01-29T04:02:03;100873.38;;;-1.15;100.00
36964;BME280;22878;48.616;35.326;2023-01-29T04:04:33;100874.77;;;-1.11;100.00
36964;BME280;22878;48.616;35.326;2023-01-29T04:07:16;100875.38;;;-1.12;100.00
36964;BME280;22878;48.616;35.326;2023-01-29T04:09:58;100878.10;;;-1.11;100.00
36964;BME280;22878;48.616;35.326;2023-01-29T08:13:39;100901.41;;;1.62;100.00
36964;BME280;22878;48.616;35.326;2023-01-29T08:16:04;100898.68;;;1.88;100.00
36964;BME280;22878;48.616;35.326;2023-01-29T08:18:30;100899.90;;;1.79;100.00
36964;BME280;22878;48.616;35.326;2023-01-29T08:23:57;100891.29;;;2.22;100.00
36964;BME280;22878;48.616;35.326;2023-01-29T08:26:22;100888.73;;;3.09;100.00
36964;BME280;22878;48.616;35.326;2023-01-29T08:28:48;100884.30;;;3.70;100.00
36964;BME280;22878;48.616;35.326;2023-01-29T08:31:14;100889.98;;;3.56;100.00
36964;BME280;22878;48.616;35.326;2023-01-29T08:33:40;100883.92;;;3.40;100.00
36964;BME280;22878;48.616;35.326;2023-01-29T08:36:07;100884.48;;;3.33;100.00
36964;BME280;22878;48.616;35.326;2023-01-29T08:38:33;100884.30;;;3.11;100.00
36964;BME280;22878;48.616;35.326;2023-01-29T08:40:58;100879.70;;;2.85;100.00
36964;BME280;22878;48.616;35.326;2023-01-29T08:43:24;100879.66;;;2.91;100.00
36964;BME280;22878;48.616;35.326;2023-01-29T08:45:49;100877.83;;;3.07;100.00
36964;BME280;22878;48.616;35.326;2023-01-29T08:48:15;100873.13;;;3.23;100.00
36964;BME280;22878;48.616;35.326;2023-01-29T08:50:40;100868.27;;;3.26;100.00
36964;BME280;22878;48.616;35.326;2023-01-29T08:53:07;100871.50;;;3.23;100.00
36964;BME280;22878;48.616;35.326;2023-01-29T08:55:38;100880.84;;;3.19;100.00
36964;BME280;22878;48.616;35.326;2023-01-29T08:58:05;100879.13;;;2.95;100.00
36964;BME280;22878;48.616;35.326;2023-01-29T09:00:32;100881.56;;;2.83;100.00
36964;BME280;22878;48.616;35.326;2023-01-29T09:02:58;100880.11;;;2.78;100.00
36964;BME280;22878;48.616;35.326;2023-01-29T09:05:28;100880.14;;;2.93;100.00
36964;BME280;22878;48.616;35.326;2023-01-29T09:07:56;100878.14;;;2.72;100.00
36964;BME280;22878;48.616;35.326;2023-01-29T09:10:22;100880.70;;;2.61;100.00
36964;BME280;22878;48.616;35.326;2023-01-29T09:13:04;100877.72;;;2.43;100.00
36964;BME280;22878;48.616;35.326;2023-01-29T09:15:29;100879.77;;;2.16;100.00
36964;BME280;22878;48.616;35.326;2023-01-29T09:17:55;100877.58;;;1.93;100.00
36964;BME280;22878;48.616;35.326;2023-01-29T09:20:21;100871.55;;;1.98;100.00
36964;BME280;22878;48.616;35.326;2023-01-29T09:22:46;100868.77;;;1.92;100.00
36964;BME280;22878;48.616;35.326;2023-01-29T09:25:12;100867.98;;;1.95;100.00
36964;BME280;22878;48.616;35.326;2023-01-29T09:27:37;100869.19;;;2.01;100.00
36964;BME280;22878;48.616;35.326;2023-01-29T09:30:04;100872.13;;;2.07;100.00
36964;BME280;22878;48.616;35.326;2023-01-29T09:32:31;100872.37;;;2.06;100.00
36964;BME280;22878;48.616;35.326;2023-01-29T09:34:58;100874.71;;;1.95;100.00
36964;BME280;22878;48.616;35.326;2023-01-29T09:37:23;100872.68;;;1.82;100.00
36964;BME280;22878;48.616;35.326;2023-01-29T09:39:49;100876.59;;;1.75;100.00
36964;BME280;22878;48.616;35.326;2023-01-29T09:42:23;100882.86;;;1.57;100.00
36964;BME280;22878;48.616;35.326;2023-01-29T09:45:14;100882.27;;;1.44;100.00
36964;BME280;22878;48.616;35.326;2023-01-29T09:47:41;100880.61;;;1.53;100.00
36964;BME280;22878;48.616;35.326;2023-01-29T09:55:55;100879.34;;;1.52;100.00
36964;BME280;22878;48.616;35.326;2023-01-29T09:58:31;100880.58;;;1.59;100.00
36964;BME280;22878;48.616;35.326;2023-01-29T10:01:05;100880.88;;;1.67;100.00
36964;BME280;22878;48.616;35.326;2023-01-29T10:03:58;100875.73;;;1.72;100.00
36964;BME280;22878;48.616;35.326;2023-01-29T10:23:52;100863.61;;;1.89;100.00
36964;BME280;22878;48.616;35.326;2023-01-29T10:26:23;100860.52;;;1.77;100.00
36964;BME280;22878;48.616;35.326;2023-01-29T10:28:54;100862.28;;;1.59;100.00
36964;BME280;22878;48.616;35.326;2023-01-29T10:31:29;100857.20;;;1.53;100.00
36964;BME280;22878;48.616;35.326;2023-01-29T10:34:01;100856.03;;;1.55;100.00
36964;BME280;22878;48.616;35.326;2023-01-29T10:36:39;100850.16;;;1.50;100.00
36964;BME280;22878;48.616;35.326;2023-01-29T10:39:22;100855.09;;;1.43;100.00
36964;BME280;22878;48.616;35.326;2023-01-29T10:45:42;100848.55;;;1.36;100.00
36964;BME280;22878;48.616;35.326;2023-01-29T10:58:53;100840.15;;;1.44;100.00
36964;BME280;22878;48.616;35.326;2023-01-29T11:01:21;100841.34;;;1.34;100.00
36964;BME280;22878;48.616;35.326;2023-01-29T11:03:55;100840.00;;;1.34;100.00
36964;BME280;22878;48.616;35.326;2023-01-29T11:06:27;100837.88;;;1.27;100.00
36964;BME280;22878;48.616;35.326;2023-01-29T11:12:28;100837.95;;;1.08;100.00
36964;BME280;22878;48.616;35.326;2023-01-29T11:15:05;100835.40;;;0.97;100.00
36964;BME280;22878;48.616;35.326;2023-01-29T11:17:37;100839.11;;;0.82;100.00
36964;BME280;22878;48.616;35.326;2023-01-29T11:20:05;100837.80;;;0.74;100.00
36964;BME280;22878;48.616;35.326;2023-01-29T11:22:53;100839.58;;;0.60;100.00
36964;BME280;22878;48.616;35.326;2023-01-29T11:25:20;100839.30;;;0.54;100.00
36964;BME280;22878;48.616;35.326;2023-01-29T11:27:53;100836.77;;;0.45;100.00
36964;BME280;22878;48.616;35.326;2023-01-29T11:35:42;100833.83;;;0.48;100.00
36964;BME280;22878;48.616;35.326;2023-01-29T11:38:24;100837.95;;;0.44;100.00
36964;BME280;22878;48.616;35.326;2023-01-29T11:40:50;100837.14;;;0.35;100.00
36964;BME280;22878;48.616;35.326;2023-01-29T11:49:31;100846.55;;;0.36;100.00
36964;BME280;22878;48.616;35.326;2023-01-29T11:52:00;100844.48;;;0.28;100.00
36964;BME280;22878;48.616;35.326;2023-01-29T11:54:31;100845.94;;;0.27;100.00
36964;BME280;22878;48.616;35.326;2023-01-29T11:56:58;100842.67;;;0.26;100.00
36964;BME280;22878;48.616;35.326;2023-01-29T11:59:27;100843.73;;;0.30;100.00
36964;BME280;22878;48.616;35.326;2023-01-29T12:01:55;100841.52;;;0.35;100.00
36964;BME280;22878;48.616;35.326;2023-01-29T12:04:27;100835.92;;;0.42;100.00
36964;BME280;22878;48.616;35.326;2023-01-29T12:06:53;100834.92;;;0.47;100.00
36964;BME280;22878;48.616;35.326;2023-01-29T12:09:24;100835.75;;;0.45;100.00
36964;BME280;22878;48.616;35.326;2023-01-29T12:11:52;100834.90;;;0.45;100.00
36964;BME280;22878;48.616;35.326;2023-01-29T12:22:01;100843.37;;;0.40;100.00
36964;BME280;22878;48.616;35.326;2023-01-29T12:27:33;100843.73;;;0.48;100.00
36964;BME280;22878;48.616;35.326;2023-01-29T12:30:30;100842.01;;;0.53;100.00
36964;BME280;22878;48.616;35.326;2023-01-29T12:33:25;100846.61;;;0.58;100.00
36964;BME280;22878;48.616;35.326;2023-01-29T12:36:23;100845.88;;;0.62;100.00
36964;BME280;22878;48.616;35.326;2023-01-29T12:38:45;100842.91;;;0.63;100.00
36964;BME280;22878;48.616;35.326;2023-01-29T12:41:42;100843.89;;;0.59;100.00
36964;BME280;22878;48.616;35.326;2023-01-29T12:44:15;100848.66;;;0.54;100.00
36964;BME280;22878;48.616;35.326;2023-01-29T12:46:46;100852.56;;;0.61;100.00
36964;BME280;22878;48.616;35.326;2023-01-29T12:49:19;100848.12;;;0.65;100.00
36964;BME280;22878;48.616;35.326;2023-01-29T12:52:03;100847.83;;;0.63;100.00
36964;BME280;22878;48.616;35.326;2023-01-29T12:54:47;100851.16;;;0.68;100.00
36964;BME280;22878;48.616;35.326;2023-01-29T12:57:39;100854.39;;;0.60;100.00
36964;BME280;22878;48.616;35.326;2023-01-29T13:00:13;100856.05;;;0.56;100.00
36964;BME280;22878;48.616;35.326;2023-01-29T13:05:43;100859.13;;;0.52;100.00
36964;BME280;22878;48.616;35.326;2023-01-29T13:10:44;100861.71;;;0.39;100.00
36964;BME280;22878;48.616;35.326;2023-01-29T13:15:44;100869.64;;;0.41;100.00
36964;BME280;22878;48.616;35.326;2023-01-29T17:37:50;100979.80;;;-1.66;100.00
36964;BME280;22878;48.616;35.326;2023-01-29T17:40:34;100978.86;;;-1.50;100.00
36964;BME280;22878;48.616;35.326;2023-01-29T17:43:01;100975.75;;;-1.47;100.00
36964;BME280;22878;48.616;35.326;2023-01-29T17:45:27;100980.02;;;-1.46;100.00
36964;BME280;22878;48.616;35.326;2023-01-29T17:47:53;100984.11;;;-1.47;100.00
36964;BME280;22878;48.616;35.326;2023-01-29T17:53:22;100980.54;;;-1.46;100.00
36964;BME280;22878;48.616;35.326;2023-01-29T17:55:48;100980.53;;;-1.44;100.00
36964;BME280;22878;48.616;35.326;2023-01-29T17:58:22;100979.30;;;-1.43;100.00
36964;BME280;22878;48.616;35.326;2023-01-29T18:04:14;100976.48;;;-1.40;100.00
36964;BME280;22878;48.616;35.326;2023-01-29T18:06:41;100978.21;;;-1.44;100.00
36964;BME280;22878;48.616;35.326;2023-01-29T18:09:11;100976.61;;;-1.41;100.00
36964;BME280;22878;48.616;35.326;2023-01-29T18:12:14;100978.30;;;-1.40;100.00
36964;BME280;22878;48.616;35.326;2023-01-29T18:14:40;100976.88;;;-1.46;100.00
36964;BME280;22878;48.616;35.326;2023-01-29T18:20:37;100976.98;;;-1.49;100.00
36964;BME280;22878;48.616;35.326;2023-01-29T18:23:40;100970.02;;;-1.49;100.00
36964;BME280;22878;48.616;35.326;2023-01-29T18:26:06;100967.08;;;-1.52;100.00
36964;BME280;22878;48.616;35.326;2023-01-29T18:28:34;100966.89;;;-1.53;100.00
36964;BME280;22878;48.616;35.326;2023-01-29T18:34:21;100969.76;;;-1.52;100.00
36964;BME280;22878;48.616;35.326;2023-01-29T18:36:46;100975.08;;;-1.54;100.00
36964;BME280;22878;48.616;35.326;2023-01-29T18:39:13;100970.01;;;-1.57;100.00
36964;BME280;22878;48.616;35.326;2023-01-29T18:41:39;100971.95;;;-1.57;100.00
36964;BME280;22878;48.616;35.326;2023-01-29T18:44:05;100977.21;;;-1.57;100.00
36964;BME280;22878;48.616;35.326;2023-01-29T18:46:30;100976.11;;;-1.62;100.00
36964;BME280;22878;48.616;35.326;2023-01-29T18:49:00;100974.29;;;-1.63;100.00
36964;BME280;22878;48.616;35.326;2023-01-29T18:51:26;100975.45;;;-1.64;100.00
36964;BME280;22878;48.616;35.326;2023-01-29T18:53:52;100971.13;;;-1.64;100.00
36964;BME280;22878;48.616;35.326;2023-01-29T18:56:17;100964.52;;;-1.67;100.00
36964;BME280;22878;48.616;35.326;2023-01-29T18:58:43;100959.44;;;-1.67;100.00
36964;BME280;22878;48.616;35.326;2023-01-29T19:01:12;100958.75;;;-1.70;100.00
36964;BME280;22878;48.616;35.326;2023-01-29T19:03:43;100963.79;;;-1.69;100.00
36964;BME280;22878;48.616;35.326;2023-01-29T19:06:10;100960.34;;;-1.70;100.00
36964;BME280;22878;48.616;35.326;2023-01-29T19:08:39;100957.38;;;-1.72;100.00
36964;BME280;22878;48.616;35.326;2023-01-29T19:11:07;100960.36;;;-1.72;100.00
36964;BME280;22878;48.616;35.326;2023-01-29T19:13:34;100963.45;;;-1.70;100.00
36964;BME280;22878;48.616;35.326;2023-01-29T19:16:00;100964.57;;;-1.67;100.00
36964;BME280;22878;48.616;35.326;2023-01-29T19:18:27;100965.45;;;-1.64;100.00
36964;BME280;22878;48.616;35.326;2023-01-29T19:20:53;100963.23;;;-1.63;100.00
36964;BME280;22878;48.616;35.326;2023-01-29T19:23:22;100959.66;;;-1.64;100.00
36964;BME280;22878;48.616;35.326;2023-01-29T19:25:49;100965.56;;;-1.60;100.00
36964;BME280;22878;48.616;35.326;2023-01-29T19:28:15;100965.13;;;-1.58;100.00
36964;BME280;22878;48.616;35.326;2023-01-29T19:30:40;100968.73;;;-1.56;100.00
36964;BME280;22878;48.616;35.326;2023-01-29T19:33:06;100971.13;;;-1.55;100.00
36964;BME280;22878;48.616;35.326;2023-01-29T19:35:32;100971.78;;;-1.53;100.00
36964;BME280;22878;48.616;35.326;2023-01-29T19:37:58;100977.29;;;-1.51;100.00
36964;BME280;22878;48.616;35.326;2023-01-29T19:40:25;100982.34;;;-1.51;100.00
36964;BME280;22878;48.616;35.326;2023-01-29T19:42:54;100985.73;;;-1.48;100.00
36964;BME280;22878;48.616;35.326;2023-01-29T19:45:21;100980.81;;;-1.48;100.00
36964;BME280;22878;48.616;35.326;2023-01-29T19:47:51;100987.05;;;-1.46;100.00
36964;BME280;22878;48.616;35.326;2023-01-29T19:50:49;100985.33;;;-1.45;100.00
36964;BME280;22878;48.616;35.326;2023-01-29T19:53:36;100990.88;;;-1.44;100.00
36964;BME280;22878;48.616;35.326;2023-01-29T19:56:13;100994.64;;;-1.41;100.00
36964;BME280;22878;48.616;35.326;2023-01-29T19:58:39;100989.52;;;-1.40;100.00
36964;BME280;22878;48.616;35.326;2023-01-29T20:01:14;100988.13;;;-1.41;100.00
36964;BME280;22878;48.616;35.326;2023-01-29T20:03:40;100992.25;;;-1.40;100.00
36964;BME280;22878;48.616;35.326;2023-01-29T20:06:07;100994.61;;;-1.40;100.00
36964;BME280;22878;48.616;35.326;2023-01-29T20:08:33;100996.17;;;-1.39;100.00
36964;BME280;22878;48.616;35.326;2023-01-29T20:11:00;101000.50;;;-1.39;100.00
36964;BME280;22878;48.616;35.326;2023-01-29T20:13:26;101001.60;;;-1.36;100.00
36964;BME280;22878;48.616;35.326;2023-01-29T20:16:15;100995.62;;;-1.34;100.00
36964;BME280;22878;48.616;35.326;2023-01-29T20:18:41;100993.48;;;-1.32;100.00
36964;BME280;22878;48.616;35.326;2023-01-29T20:21:10;100994.08;;;-1.31;100.00
36964;BME280;22878;48.616;35.326;2023-01-29T20:23:36;100998.62;;;-1.32;100.00
36964;BME280;22878;48.616;35.326;2023-01-29T20:26:11;101001.23;;;-1.35;100.00
36964;BME280;22878;48.616;35.326;2023-01-29T20:28:38;101005.38;;;-1.33;100.00
36964;BME280;22878;48.616;35.326;2023-01-29T20:31:07;101004.27;;;-1.31;100.00
36964;BME280;22878;48.616;35.326;2023-01-29T20:33:34;101003.86;;;-1.31;100.00
36964;BME280;22878;48.616;35.326;2023-01-29T20:36:02;101005.02;;;-1.28;100.00
36964;BME280;22878;48.616;35.326;2023-01-29T20:38:28;101007.75;;;-1.26;100.00
36964;BME280;22878;48.616;35.326;2023-01-29T20:41:05;101005.59;;;-1.26;100.00
36964;BME280;22878;48.616;35.326;2023-01-29T20:43:37;101008.77;;;-1.24;100.00
36964;BME280;22878;48.616;35.326;2023-01-29T20:46:03;101006.85;;;-1.26;100.00
36964;BME280;22878;48.616;35.326;2023-01-29T20:48:30;101007.10;;;-1.28;100.00
36964;BME280;22878;48.616;35.326;2023-01-29T20:50:56;101006.58;;;-1.31;100.00
36964;BME280;22878;48.616;35.326;2023-01-29T20:53:27;101004.13;;;-1.36;100.00
36964;BME280;22878;48.616;35.326;2023-01-29T20:55:55;101006.84;;;-1.39;100.00
36964;BME280;22878;48.616;35.326;2023-01-29T20:58:21;101008.27;;;-1.37;100.00
36964;BME280;22878;48.616;35.326;2023-01-29T21:00:47;101011.33;;;-1.38;100.00
36964;BME280;22878;48.616;35.326;2023-01-29T21:03:15;101010.87;;;-1.40;100.00
36964;BME280;22878;48.616;35.326;2023-01-29T21:05:41;101011.39;;;-1.43;100.00
36964;BME280;22878;48.616;35.326;2023-01-29T21:08:06;101011.58;;;-1.43;100.00
36964;BME280;22878;48.616;35.326;2023-01-29T21:10:32;101014.36;;;-1.44;100.00
36964;BME280;22878;48.616;35.326;2023-01-29T21:12:57;101016.77;;;-1.42;100.00
36964;BME280;22878;48.616;35.326;2023-01-29T21:15:23;101013.59;;;-1.44;100.00
36964;BME280;22878;48.616;35.326;2023-01-29T21:17:52;101016.52;;;-1.46;100.00
36964;BME280;22878;48.616;35.326;2023-01-29T21:20:17;101015.21;;;-1.49;100.00
36964;BME280;22878;48.616;35.326;2023-01-29T21:22:43;101020.27;;;-1.50;100.00
36964;BME280;22878;48.616;35.326;2023-01-29T21:25:09;101016.34;;;-1.53;100.00
36964;BME280;22878;48.616;35.326;2023-01-29T21:27:35;101016.41;;;-1.55;100.00
36964;BME280;22878;48.616;35.326;2023-01-29T21:30:00;101016.45;;;-1.55;100.00
36964;BME280;22878;48.616;35.326;2023-01-29T21:32:26;101015.23;;;-1.55;100.00
36964;BME280;22878;48.616;35.326;2023-01-29T21:34:53;101012.25;;;-1.55;100.00
36964;BME280;22878;48.616;35.326;2023-01-29T21:37:18;101014.55;;;-1.54;100.00
36964;BME280;22878;48.616;35.326;2023-01-29T21:39:44;101010.60;;;-1.53;100.00
36964;BME280;22878;48.616;35.326;2023-01-29T21:42:10;101010.14;;;-1.54;100.00
36964;BME280;22878;48.616;35.326;2023-01-29T21:44:54;101010.04;;;-1.56;100.00
36964;BME280;22878;48.616;35.326;2023-01-29T21:47:20;101015.95;;;-1.57;100.00
36964;BME280;22878;48.616;35.326;2023-01-29T21:49:46;101016.04;;;-1.56;100.00
36964;BME280;22878;48.616;35.326;2023-01-29T21:52:13;101013.48;;;-1.57;100.00
36964;BME280;22878;48.616;35.326;2023-01-29T21:54:39;101014.68;;;-1.60;100.00
36964;BME280;22878;48.616;35.326;2023-01-29T21:57:10;101014.34;;;-1.60;100.00
36964;BME280;22878;48.616;35.326;2023-01-29T21:59:35;101014.71;;;-1.58;100.00
36964;BME280;22878;48.616;35.326;2023-01-29T22:02:01;101003.43;;;-1.59;100.00
36964;BME280;22878;48.616;35.326;2023-01-29T22:04:27;101001.92;;;-1.59;100.00
36964;BME280;22878;48.616;35.326;2023-01-29T22:06:53;101003.20;;;-1.56;100.00
36964;BME280;22878;48.616;35.326;2023-01-29T22:09:19;101005.11;;;-1.54;100.00
36964;BME280;22878;48.616;35.326;2023-01-29T22:11:45;101005.38;;;-1.55;100.00
36964;BME280;22878;48.616;35.326;2023-01-29T22:14:10;101006.42;;;-1.54;100.00
36964;BME280;22878;48.616;35.326;2023-01-29T22:16:39;101008.19;;;-1.54;100.00
36964;BME280;22878;48.616;35.326;2023-01-29T22:19:04;101010.16;;;-1.56;100.00
36964;BME280;22878;48.616;35.326;2023-01-29T22:21:32;101011.09;;;-1.63;100.00
36964;BME280;22878;48.616;35.326;2023-01-29T22:24:00;101009.13;;;-1.64;100.00
36964;BME280;22878;48.616;35.326;2023-01-29T22:26:25;101006.70;;;-1.64;100.00
36964;BME280;22878;48.616;35.326;2023-01-29T22:28:51;101003.35;;;-1.64;100.00
36964;BME280;22878;48.616;35.326;2023-01-29T22:31:18;101010.29;;;-1.65;100.00
36964;BME280;22878;48.616;35.326;2023-01-29T22:33:44;101009.81;;;-1.68;100.00
36964;BME280;22878;48.616;35.326;2023-01-29T22:36:09;101016.92;;;-1.69;100.00
36964;BME280;22878;48.616;35.326;2023-01-29T22:38:35;101013.92;;;-1.70;100.00
36964;BME280;22878;48.616;35.326;2023-01-29T22:41:01;101018.84;;;-1.72;100.00
36964;BME280;22878;48.616;35.326;2023-01-29T22:43:26;101012.69;;;-1.72;100.00
36964;BME280;22878;48.616;35.326;2023-01-29T22:45:57;101010.87;;;-1.72;100.00
36964;BME280;22878;48.616;35.326;2023-01-29T22:48:23;101010.21;;;-1.72;100.00
36964;BME280;22878;48.616;35.326;2023-01-29T22:50:55;101009.61;;;-1.71;100.00
36964;BME280;22878;48.616;35.326;2023-01-29T22:53:37;101008.86;;;-1.74;100.00
36964;BME280;22878;48.616;35.326;2023-01-29T22:56:04;101005.75;;;-1.70;100.00
36964;BME280;22878;48.616;35.326;2023-01-29T22:58:29;101006.67;;;-1.67;100.00
36964;BME280;22878;48.616;35.326;2023-01-29T23:00:55;101010.56;;;-1.67;100.00
36964;BME280;22878;48.616;35.326;2023-01-29T23:03:20;101014.27;;;-1.67;100.00
36964;BME280;22878;48.616;35.326;2023-01-29T23:05:46;101014.56;;;-1.65;100.00
36964;BME280;22878;48.616;35.326;2023-01-29T23:08:11;101015.88;;;-1.64;100.00
36964;BME280;22878;48.616;35.326;2023-01-29T23:10:37;101015.36;;;-1.65;100.00
36964;BME280;22878;48.616;35.326;2023-01-29T23:13:02;101017.12;;;-1.62;100.00
36964;BME280;22878;48.616;35.326;2023-01-29T23:15:28;101022.23;;;-1.58;100.00
36964;BME280;22878;48.616;35.326;2023-01-29T23:17:54;101018.98;;;-1.59;100.00
36964;BME280;22878;48.616;35.326;2023-01-29T23:20:19;101019.14;;;-1.60;100.00
36964;BME280;22878;48.616;35.326;2023-01-29T23:22:48;101017.37;;;-1.64;100.00
36964;BME280;22878;48.616;35.326;2023-01-29T23:25:14;101018.55;;;-1.65;100.00
36964;BME280;22878;48.616;35.326;2023-01-29T23:27:39;101024.17;;;-1.64;100.00
36964;BME280;22878;48.616;35.326;2023-01-29T23:30:05;101025.85;;;-1.64;100.00